createdAt,value
2023-07-12T00:01:32.465Z,24.56
2023-07-12T00:03:53.469Z,24.30
2023-07-12T00:06:17.523Z,24.40
2023-07-12T00:08:38.181Z,24.47
2023-07-12T00:10:59.222Z,24.48
2023-07-12T00:13:20.193Z,24.62
2023-07-12T00:15:41.897Z,24.52
2023-07-12T00:18:02.339Z,24.76
2023-07-12T00:20:36.402Z,24.86
2023-07-12T00:22:57.662Z,24.88
2023-07-12T00:25:20.203Z,24.94
2023-07-12T00:27:40.515Z,24.83
2023-07-12T00:30:00.798Z,24.76
2023-07-12T00:32:21.657Z,24.76
2023-07-12T00:34:42.442Z,24.84
2023-07-12T00:37:02.830Z,24.66
2023-07-12T00:39:23.276Z,24.70
2023-07-12T00:42:02.696Z,24.80
2023-07-12T00:44:32.157Z,24.76
2023-07-12T00:46:58.765Z,24.92
2023-07-12T00:49:19.836Z,24.79
2023-07-12T00:51:46.684Z,24.91
2023-07-12T00:54:16.936Z,24.84
2023-07-12T00:56:38.172Z,24.81
2023-07-12T00:59:10.624Z,24.63
2023-07-12T01:01:35.937Z,24.68
2023-07-12T01:03:57.061Z,24.54
2023-07-12T01:06:19.173Z,24.68
2023-07-12T01:08:42.450Z,24.62
2023-07-12T01:11:04.400Z,24.61
2023-07-12T01:13:25.370Z,24.61
2023-07-12T01:15:46.078Z,24.57
2023-07-12T01:18:08.376Z,24.47
2023-07-12T01:20:29.386Z,24.42
2023-07-12T01:22:56.047Z,24.42
2023-07-12T01:25:16.756Z,24.38
2023-07-12T01:27:37.369Z,24.46
2023-07-12T01:29:58.313Z,24.40
2023-07-12T01:32:19.945Z,24.52
2023-07-12T01:34:41.770Z,24.40
2023-07-12T01:37:05.739Z,24.25
2023-07-12T01:39:27.000Z,24.37
2023-07-12T01:41:47.415Z,24.41
2023-07-12T01:44:08.281Z,24.53
2023-07-12T01:46:29.056Z,24.52
2023-07-12T01:48:49.819Z,24.49
2023-07-12T01:51:10.819Z,24.37
2023-07-12T01:53:34.339Z,24.29
2023-07-12T01:55:55.528Z,24.29
2023-07-12T01:58:16.144Z,24.21
2023-07-12T02:00:36.696Z,24.26
2023-07-12T02:02:57.529Z,24.37
2023-07-12T02:05:19.473Z,24.39
2023-07-12T02:07:40.213Z,24.50
2023-07-12T02:10:18.670Z,24.64
2023-07-12T02:12:39.987Z,24.66
2023-07-12T02:15:00.639Z,24.44
2023-07-12T02:17:20.986Z,24.75
2023-07-12T02:19:41.359Z,24.74
2023-07-12T02:22:01.888Z,24.54
2023-07-12T02:24:22.178Z,24.74
2023-07-12T02:26:42.799Z,24.74
2023-07-12T02:29:03.473Z,24.77
2023-07-12T02:31:25.350Z,24.78
2023-07-12T02:33:45.833Z,24.79
2023-07-12T02:36:06.225Z,24.82
2023-07-12T02:38:26.961Z,24.83
2023-07-12T02:40:47.401Z,24.66
2023-07-12T02:43:07.994Z,24.53
2023-07-12T02:45:28.511Z,24.32
2023-07-12T02:47:49.111Z,24.18
2023-07-12T02:50:10.133Z,24.10
2023-07-12T02:52:30.547Z,23.92
2023-07-12T02:54:51.195Z,23.94
2023-07-12T02:57:13.406Z,23.87
2023-07-12T02:59:33.820Z,23.73
2023-07-12T03:01:54.967Z,24.00
2023-07-12T03:04:16.014Z,24.11
2023-07-12T03:06:36.785Z,24.33
2023-07-12T03:08:57.775Z,24.33
2023-07-12T03:11:18.165Z,24.45
2023-07-12T03:13:38.872Z,24.38
2023-07-12T03:16:00.109Z,24.17
2023-07-12T03:18:21.444Z,24.44
2023-07-12T03:20:42.459Z,24.61
2023-07-12T03:23:03.054Z,24.45
2023-07-12T03:25:23.543Z,24.50
2023-07-12T03:27:44.099Z,24.43
2023-07-12T03:30:05.549Z,24.31
2023-07-12T03:32:26.341Z,24.17
2023-07-12T03:34:47.088Z,24.13
2023-07-12T03:37:07.976Z,24.13
2023-07-12T03:39:29.015Z,24.18
2023-07-12T03:41:49.589Z,24.16
2023-07-12T03:44:10.026Z,24.38
2023-07-12T03:46:30.598Z,24.52
2023-07-12T03:48:51.526Z,24.48
2023-07-12T03:51:13.111Z,24.37
2023-07-12T03:53:33.842Z,24.39
2023-07-12T03:55:59.612Z,24.37
2023-07-12T03:58:22.711Z,24.38
2023-07-12T04:00:44.756Z,24.37
2023-07-12T04:03:06.192Z,24.34
2023-07-12T04:05:27.246Z,24.26
2023-07-12T04:07:47.760Z,24.31
2023-07-12T04:10:08.764Z,24.42
2023-07-12T04:12:29.551Z,24.36
2023-07-12T04:14:50.455Z,24.43
2023-07-12T04:17:10.844Z,24.42
2023-07-12T04:19:31.432Z,24.36
2023-07-12T04:21:51.973Z,24.35
2023-07-12T04:24:12.987Z,24.40
2023-07-12T04:26:33.997Z,24.41
2023-07-12T04:28:55.394Z,24.43
2023-07-12T04:31:17.570Z,24.45
2023-07-12T04:33:38.467Z,24.36
2023-07-12T04:35:59.391Z,24.26
2023-07-12T04:38:20.184Z,24.19
2023-07-12T04:40:40.764Z,24.32
2023-07-12T04:43:01.547Z,24.34
2023-07-12T04:45:21.992Z,24.36
2023-07-12T04:47:43.167Z,24.33
2023-07-12T04:50:05.527Z,24.41
2023-07-12T04:52:26.064Z,24.48
2023-07-12T04:54:46.998Z,24.52
2023-07-12T04:57:08.218Z,24.64
2023-07-12T04:59:28.686Z,24.68
2023-07-12T05:01:49.811Z,24.73
2023-07-12T05:04:10.614Z,24.75
2023-07-12T05:06:31.536Z,24.78
2023-07-12T05:08:52.566Z,24.76
2023-07-12T05:11:13.326Z,24.78
2023-07-12T05:13:34.634Z,24.89
2023-07-12T05:15:55.193Z,24.97
2023-07-12T05:18:15.922Z,25.09
2023-07-12T05:20:37.744Z,25.17
2023-07-12T05:22:58.452Z,25.17
2023-07-12T05:25:18.905Z,24.90
2023-07-12T05:27:40.242Z,24.93
2023-07-12T05:30:01.626Z,24.99
2023-07-12T05:32:22.368Z,25.02
2023-07-12T05:34:43.079Z,25.07
2023-07-12T05:37:04.711Z,25.06
2023-07-12T05:39:25.008Z,25.07
2023-07-12T05:41:45.470Z,25.07
2023-07-12T05:44:06.171Z,25.16
2023-07-12T05:46:28.040Z,25.12
2023-07-12T05:48:50.008Z,25.14
2023-07-12T05:51:12.686Z,25.18
2023-07-12T05:53:33.783Z,25.06
2023-07-12T05:55:59.287Z,25.02
2023-07-12T05:58:19.791Z,24.98
2023-07-12T06:00:40.583Z,24.95
2023-07-12T06:03:01.033Z,24.75
2023-07-12T06:05:21.938Z,24.63
2023-07-12T06:07:42.879Z,24.49
2023-07-12T06:10:04.337Z,24.57
2023-07-12T06:12:25.491Z,24.44
2023-07-12T06:14:46.308Z,24.35
2023-07-12T06:17:07.500Z,24.34
2023-07-12T06:19:28.126Z,24.10
2023-07-12T06:21:48.740Z,24.06
2023-07-12T06:24:09.280Z,23.68
2023-07-12T06:26:29.914Z,23.68
2023-07-12T06:28:51.094Z,23.99
2023-07-12T06:31:11.958Z,24.08
2023-07-12T06:33:33.183Z,23.86
2023-07-12T06:35:53.921Z,23.57
2023-07-12T06:38:14.566Z,23.64
2023-07-12T06:40:35.186Z,23.95
2023-07-12T06:42:55.622Z,23.84
2023-07-12T06:45:16.223Z,23.49
2023-07-12T06:47:37.100Z,23.91
2023-07-12T06:49:58.417Z,23.91
2023-07-12T06:52:19.046Z,24.26
2023-07-12T06:54:39.922Z,24.19
2023-07-12T06:57:00.533Z,24.54
2023-07-12T06:59:21.152Z,24.51
2023-07-12T07:01:41.716Z,24.57
2023-07-12T07:04:03.351Z,24.61
2023-07-12T07:06:23.827Z,24.73
2023-07-12T07:08:44.547Z,24.92
2023-07-12T07:11:05.470Z,25.02
2023-07-12T07:13:26.216Z,25.01
2023-07-12T07:15:47.294Z,25.10
2023-07-12T07:18:09.774Z,25.06
2023-07-12T07:20:30.283Z,24.79
2023-07-12T07:22:51.016Z,24.75
2023-07-12T07:25:17.572Z,24.71
2023-07-12T07:27:42.048Z,24.79
2023-07-12T07:30:03.351Z,25.25
2023-07-12T07:32:24.034Z,25.56
2023-07-12T07:34:45.039Z,25.56
2023-07-12T07:37:06.095Z,25.60
2023-07-12T07:39:27.431Z,25.76
2023-07-12T07:41:48.051Z,25.90
2023-07-12T07:44:08.610Z,25.89
2023-07-12T07:46:29.584Z,25.67
2023-07-12T07:48:50.310Z,25.55
2023-07-12T07:51:11.740Z,25.92
2023-07-12T07:53:32.340Z,25.94
2023-07-12T07:55:53.551Z,26.37
2023-07-12T07:58:14.203Z,26.41
2023-07-12T08:00:34.955Z,26.18
2023-07-12T08:02:55.514Z,26.12
2023-07-12T08:05:16.361Z,26.23
2023-07-12T08:07:47.285Z,26.55
2023-07-12T08:10:11.053Z,26.35
2023-07-12T08:12:31.786Z,26.40
2023-07-12T08:14:52.149Z,26.24
2023-07-12T08:17:12.578Z,26.27
2023-07-12T08:19:32.847Z,26.39
2023-07-12T08:21:53.212Z,26.56
2023-07-12T08:24:13.579Z,26.53
2023-07-12T08:26:33.979Z,26.99
2023-07-12T08:28:54.509Z,26.43
2023-07-12T08:31:15.775Z,26.61
2023-07-12T08:33:36.686Z,26.84
2023-07-12T08:35:57.117Z,27.29
2023-07-12T08:38:19.822Z,27.26
2023-07-12T08:40:45.795Z,27.51
2023-07-12T08:43:12.357Z,26.79
2023-07-12T08:45:34.383Z,27.31
2023-07-12T08:48:03.896Z,27.69
2023-07-12T08:50:28.007Z,28.03
2023-07-12T08:52:48.634Z,28.20
2023-07-12T08:55:15.315Z,27.91
2023-07-12T08:57:38.764Z,28.06
2023-07-12T09:00:12.109Z,28.80
2023-07-12T09:02:33.128Z,29.26
2023-07-12T09:04:58.543Z,29.11
2023-07-12T09:07:29.526Z,29.08
2023-07-12T09:09:51.026Z,29.35
2023-07-12T09:12:24.181Z,29.77
2023-07-12T09:14:45.918Z,29.55
2023-07-12T09:17:23.863Z,29.66
2023-07-12T09:19:44.677Z,29.18
2023-07-12T09:22:17.426Z,29.31
2023-07-12T09:24:44.499Z,29.44
2023-07-12T09:27:07.227Z,29.42
2023-07-12T09:29:27.967Z,29.24
2023-07-12T09:31:49.109Z,29.12
2023-07-12T09:34:27.554Z,28.60
2023-07-12T09:36:58.726Z,29.42
2023-07-12T09:39:19.246Z,29.28
2023-07-12T09:41:51.790Z,29.62
2023-07-12T09:44:12.735Z,30.19
2023-07-12T09:46:38.379Z,30.06
2023-07-12T09:49:16.712Z,29.96
2023-07-12T09:51:58.458Z,30.52
2023-07-12T09:54:29.446Z,30.32
2023-07-12T09:56:53.504Z,30.49
2023-07-12T09:59:25.969Z,30.13
2023-07-12T10:02:25.129Z,29.65
2023-07-12T10:04:54.251Z,29.00
2023-07-12T10:07:37.517Z,28.82
2023-07-12T10:09:58.754Z,29.58
2023-07-12T10:12:27.719Z,30.10
2023-07-12T10:14:48.525Z,29.57
2023-07-12T10:17:32.951Z,29.94
2023-07-12T10:19:55.813Z,30.18
2023-07-12T10:22:27.504Z,30.77
2023-07-12T10:24:51.800Z,30.78
2023-07-12T10:27:30.044Z,29.97
2023-07-12T10:29:56.103Z,30.77
2023-07-12T10:32:27.165Z,30.53
2023-07-12T10:34:54.289Z,30.63
2023-07-12T10:37:20.675Z,30.33
2023-07-12T10:39:44.393Z,30.00
2023-07-12T10:42:17.873Z,30.23
2023-07-12T10:44:45.447Z,30.29
2023-07-12T10:47:16.682Z,30.12
2023-07-12T10:49:58.100Z,30.55
2023-07-12T10:52:28.604Z,30.96
2023-07-12T10:55:04.518Z,30.79
2023-07-12T10:57:29.237Z,30.27
2023-07-12T11:00:04.263Z,29.88
2023-07-12T11:02:29.441Z,30.28
2023-07-12T11:04:50.640Z,30.72
2023-07-12T11:07:11.105Z,30.87
2023-07-12T11:09:46.354Z,30.73
2023-07-12T11:12:08.778Z,30.17
2023-07-12T11:14:38.904Z,30.92
2023-07-12T11:17:09.988Z,30.76
2023-07-12T11:19:43.573Z,30.90
2023-07-12T11:22:11.131Z,30.38
2023-07-12T11:24:38.449Z,30.18
2023-07-12T11:27:02.640Z,30.67
2023-07-12T11:29:23.173Z,31.16
2023-07-12T11:31:49.217Z,30.69
2023-07-12T11:34:19.549Z,31.34
2023-07-12T11:36:41.195Z,31.32
2023-07-12T11:39:03.061Z,31.52
2023-07-12T11:41:27.266Z,31.62
2023-07-12T11:43:47.952Z,31.23
2023-07-12T11:46:19.911Z,31.02
2023-07-12T11:48:43.847Z,30.90
2023-07-12T11:51:10.221Z,31.47
2023-07-12T11:53:31.227Z,31.41
2023-07-12T11:55:53.074Z,31.55
2023-07-12T11:58:17.887Z,32.07
2023-07-12T12:00:39.588Z,32.52
2023-07-12T12:03:00.627Z,32.27
2023-07-12T12:05:26.390Z,32.65
2023-07-12T12:07:48.702Z,32.50
2023-07-12T12:10:21.617Z,32.13
2023-07-12T12:12:42.464Z,32.30
2023-07-12T12:15:18.219Z,32.38
2023-07-12T12:17:39.211Z,32.22
2023-07-12T12:20:21.312Z,32.15
2023-07-12T12:22:45.065Z,31.87
2023-07-12T12:25:06.435Z,31.96
2023-07-12T12:27:38.803Z,31.42
2023-07-12T12:30:17.368Z,31.44
2023-07-12T12:32:39.433Z,31.67
2023-07-12T12:35:00.413Z,31.45
2023-07-12T12:37:30.469Z,30.49
2023-07-12T12:40:01.972Z,29.06
2023-07-12T12:42:24.427Z,28.68
2023-07-12T12:44:46.032Z,28.31
2023-07-12T12:47:20.471Z,27.81
2023-07-12T12:54:59.647Z,26.33
2023-07-12T13:01:30.069Z,26.45
2023-07-12T13:04:59.650Z,27.09
2023-07-12T13:07:45.722Z,26.96
2023-07-12T13:17:54.249Z,24.89
2023-07-12T13:20:14.635Z,25.91
2023-07-12T13:22:35.415Z,26.30
2023-07-12T13:24:57.451Z,25.38
2023-07-12T13:27:17.754Z,25.36
2023-07-12T13:29:38.208Z,25.17
2023-07-12T13:31:58.816Z,24.81
2023-07-12T13:34:21.992Z,24.07
2023-07-12T13:36:46.520Z,23.61
2023-07-12T13:46:21.237Z,24.45
2023-07-12T13:48:43.465Z,24.63
2023-07-12T13:51:05.851Z,24.56
2023-07-12T13:53:26.794Z,24.46
2023-07-12T13:55:47.687Z,23.99
2023-07-12T14:00:44.308Z,24.50
2023-07-12T14:03:21.864Z,23.88
2023-07-12T14:05:44.852Z,23.31
2023-07-12T14:10:29.940Z,23.03
2023-07-12T14:12:50.710Z,23.35
2023-07-12T14:15:25.723Z,23.96
2023-07-12T14:17:46.421Z,24.12
2023-07-12T14:20:09.435Z,24.32
2023-07-12T14:22:32.203Z,24.52
2023-07-12T14:24:53.980Z,24.51
2023-07-12T14:27:21.868Z,24.78
2023-07-12T14:32:17.083Z,24.66
2023-07-12T14:34:37.661Z,24.69
2023-07-12T14:36:58.068Z,24.70
2023-07-12T14:39:18.574Z,24.69
2023-07-12T14:41:43.614Z,24.69
2023-07-12T14:44:16.513Z,24.71
2023-07-12T14:46:37.982Z,24.60
2023-07-12T14:48:58.561Z,24.66
2023-07-12T14:51:24.588Z,24.59
2023-07-12T14:53:45.271Z,24.59
2023-07-12T14:56:05.759Z,24.79
2023-07-12T14:58:26.119Z,24.82
2023-07-12T15:00:46.603Z,24.93
2023-07-12T15:03:19.023Z,24.86
2023-07-12T15:05:39.655Z,24.74
2023-07-12T15:08:00.134Z,24.82
2023-07-12T15:10:21.205Z,24.90
2023-07-12T15:12:44.353Z,24.92
2023-07-12T15:15:23.283Z,24.93
2023-07-12T15:18:06.192Z,24.88
2023-07-12T15:20:27.127Z,24.69
2023-07-12T15:22:48.583Z,24.74
2023-07-12T15:25:20.906Z,24.92
2023-07-12T15:27:41.296Z,24.84
2023-07-12T15:30:01.874Z,24.80
2023-07-12T15:32:22.640Z,24.80
2023-07-12T15:34:43.889Z,24.96
2023-07-12T15:37:16.372Z,24.79
2023-07-12T15:39:38.285Z,25.14
2023-07-12T15:41:58.951Z,25.32
2023-07-12T15:44:19.429Z,25.39
2023-07-12T15:46:39.801Z,25.41
2023-07-12T15:49:01.376Z,25.26
2023-07-12T15:51:35.598Z,25.27
2023-07-12T15:53:56.597Z,25.36
2023-07-12T15:56:20.719Z,25.39
2023-07-12T15:58:41.264Z,25.38
2023-07-12T16:01:04.845Z,25.45
2023-07-12T16:03:32.514Z,25.41
2023-07-12T16:05:54.383Z,25.46
2023-07-12T16:08:15.729Z,25.47
2023-07-12T16:10:36.232Z,25.32
2023-07-12T16:12:57.030Z,25.33
2023-07-12T16:15:19.006Z,25.39
2023-07-12T16:17:39.740Z,25.25
2023-07-12T16:20:00.559Z,25.17
2023-07-12T16:22:25.212Z,25.28
2023-07-12T16:24:46.573Z,25.24
2023-07-12T16:27:14.333Z,25.14
2023-07-12T16:29:34.638Z,25.12
2023-07-12T16:31:56.044Z,25.10
2023-07-12T16:34:21.884Z,25.06
2023-07-12T16:36:43.094Z,25.18
2023-07-12T16:39:03.978Z,25.25
2023-07-12T16:41:28.364Z,25.29
2023-07-12T16:43:48.827Z,25.39
2023-07-12T16:46:12.663Z,25.35
2023-07-12T16:48:33.971Z,25.33
2023-07-12T16:50:54.710Z,25.35
2023-07-12T16:53:34.915Z,25.46
2023-07-12T16:55:55.765Z,25.43
2023-07-12T16:58:20.664Z,25.43
2023-07-12T17:00:41.728Z,25.39
2023-07-12T17:03:02.867Z,25.35
2023-07-12T17:05:23.450Z,25.38
2023-07-12T17:07:44.465Z,25.33
2023-07-12T17:10:06.828Z,25.18
2023-07-12T17:12:35.792Z,25.13
2023-07-12T17:14:56.676Z,25.19
2023-07-12T17:17:17.547Z,25.06
2023-07-12T17:19:37.929Z,25.00
2023-07-12T17:21:58.181Z,25.06
2023-07-12T17:24:18.600Z,25.09
2023-07-12T17:26:39.673Z,25.05
2023-07-12T17:29:00.343Z,25.00
2023-07-12T17:31:29.298Z,25.04
2023-07-12T17:33:50.228Z,24.96
2023-07-12T17:36:13.671Z,24.85
2023-07-12T17:38:34.514Z,24.80
2023-07-12T17:40:56.968Z,24.73
2023-07-12T17:43:22.897Z,24.83
2023-07-12T17:45:44.166Z,24.77
2023-07-12T17:48:05.711Z,24.78
2023-07-12T17:50:26.918Z,25.03
2023-07-12T17:52:47.428Z,25.07
2023-07-12T17:55:16.103Z,25.04
2023-07-12T17:57:36.441Z,25.00
2023-07-12T17:59:56.888Z,24.60
2023-07-12T18:02:26.104Z,24.62
2023-07-12T18:04:47.854Z,24.79
2023-07-12T18:07:24.589Z,24.54
2023-07-12T18:09:45.193Z,24.65
2023-07-12T18:12:06.364Z,24.86
2023-07-12T18:14:27.048Z,25.17
2023-07-12T18:16:47.893Z,25.21
2023-07-12T18:19:08.917Z,25.19
2023-07-12T18:21:35.550Z,25.31
2023-07-12T18:23:57.375Z,25.39
2023-07-12T18:26:18.963Z,25.33
2023-07-12T18:28:39.459Z,25.17
2023-07-12T18:31:00.108Z,25.29
2023-07-12T18:33:24.422Z,25.36
2023-07-12T18:35:44.941Z,25.36
2023-07-12T18:38:05.359Z,25.16
2023-07-12T18:40:27.414Z,24.72
2023-07-12T18:42:48.354Z,24.68
2023-07-12T18:45:23.813Z,24.96
2023-07-12T18:47:44.641Z,25.15
2023-07-12T18:50:05.935Z,25.28
2023-07-12T18:52:26.973Z,25.29
2023-07-12T18:54:49.336Z,25.17
2023-07-12T18:57:14.284Z,24.99
2023-07-12T18:59:34.554Z,24.44
2023-07-12T19:01:55.195Z,23.81
2023-07-12T19:04:18.820Z,23.83
2023-07-12T19:06:40.211Z,23.99
2023-07-12T19:09:02.046Z,24.46
2023-07-12T19:11:32.444Z,24.54
2023-07-12T19:13:53.876Z,24.07
2023-07-12T19:16:14.689Z,24.29
2023-07-12T19:18:35.453Z,24.54
2023-07-12T19:20:56.173Z,24.76
2023-07-12T19:23:17.868Z,24.85
2023-07-12T19:25:38.423Z,24.79
2023-07-12T19:27:58.841Z,24.55
2023-07-12T19:30:22.595Z,24.61
2023-07-12T19:32:43.562Z,24.41
2023-07-12T19:35:04.894Z,24.56
2023-07-12T19:37:25.746Z,24.53
2023-07-12T19:39:47.324Z,24.60
2023-07-12T19:42:08.319Z,24.70
2023-07-12T19:44:28.981Z,24.82
2023-07-12T19:46:50.719Z,24.91
2023-07-12T19:49:11.926Z,24.89
2023-07-12T19:51:36.789Z,25.06
2023-07-12T19:53:59.629Z,25.02
2023-07-12T19:56:20.691Z,25.08
2023-07-12T19:58:41.384Z,24.82
2023-07-12T20:01:02.113Z,24.59
2023-07-12T20:03:22.986Z,24.81
2023-07-12T20:05:43.768Z,24.95
2023-07-12T20:08:05.684Z,25.04
2023-07-12T20:10:26.226Z,25.08
2023-07-12T20:12:46.853Z,24.81
2023-07-12T20:15:08.374Z,24.66
2023-07-12T20:17:29.184Z,23.97
2023-07-12T20:19:49.926Z,23.81
2023-07-12T20:22:14.474Z,24.02
2023-07-12T20:24:35.149Z,23.69
2023-07-12T20:26:55.568Z,24.16
2023-07-12T20:29:16.345Z,23.85
2023-07-12T20:31:37.372Z,23.84
2023-07-12T20:33:58.245Z,23.67
2023-07-12T20:36:18.734Z,24.00
2023-07-12T20:38:39.729Z,24.28
2023-07-12T20:41:00.697Z,24.31
2023-07-12T20:43:21.529Z,24.30
2023-07-12T20:45:41.960Z,24.40
2023-07-12T20:48:05.146Z,24.35
2023-07-12T20:50:26.994Z,24.35
2023-07-12T20:52:47.432Z,24.40
2023-07-12T20:55:07.977Z,24.50
2023-07-12T20:57:28.341Z,24.51
2023-07-12T20:59:49.091Z,24.35
2023-07-12T21:02:11.634Z,24.35
2023-07-12T21:04:32.392Z,24.29
2023-07-12T21:06:53.488Z,24.36
2023-07-12T21:09:14.979Z,24.45
2023-07-12T21:11:35.902Z,24.39
2023-07-12T21:13:56.637Z,24.41
2023-07-12T21:16:19.001Z,24.32
2023-07-12T21:18:40.705Z,24.27
2023-07-12T21:21:02.101Z,24.28
2023-07-12T21:23:22.841Z,24.30
2023-07-12T21:25:44.355Z,24.22
2023-07-12T21:28:05.347Z,24.24
2023-07-12T21:30:26.267Z,24.18
2023-07-12T21:32:48.269Z,24.16
2023-07-12T21:35:09.531Z,24.18
2023-07-12T21:37:30.284Z,24.20
2023-07-12T21:39:51.854Z,24.16
2023-07-12T21:42:14.352Z,24.23
2023-07-12T21:44:35.542Z,24.10
2023-07-12T21:46:56.204Z,24.15
2023-07-12T21:49:17.312Z,24.18
2023-07-12T21:51:37.981Z,24.26
2023-07-12T21:53:59.821Z,24.25
2023-07-12T21:56:21.623Z,24.21
2023-07-12T21:58:42.556Z,24.21
2023-07-12T22:01:11.041Z,24.18
2023-07-12T22:03:31.986Z,24.25
2023-07-12T22:05:52.844Z,24.20
2023-07-12T22:08:15.356Z,24.07
2023-07-12T22:10:36.695Z,24.06
2023-07-12T22:12:58.039Z,24.08
2023-07-12T22:15:19.021Z,24.12
2023-07-12T22:17:40.108Z,24.05
2023-07-12T22:20:01.354Z,24.11
2023-07-12T22:22:22.102Z,23.97
2023-07-12T22:24:42.933Z,24.15
2023-07-12T22:27:07.262Z,24.14
2023-07-12T22:29:27.987Z,24.28
2023-07-12T22:31:48.908Z,24.36
2023-07-12T22:34:10.088Z,24.45
2023-07-12T22:36:30.854Z,24.31
2023-07-12T22:38:51.940Z,24.25
2023-07-12T22:41:13.865Z,24.13
2023-07-12T22:43:34.573Z,24.14
2023-07-12T22:45:56.126Z,24.08
2023-07-12T22:48:16.971Z,24.05
2023-07-12T22:50:37.933Z,24.10
2023-07-12T22:53:01.818Z,24.17
2023-07-12T22:55:23.792Z,24.20
2023-07-12T22:57:45.398Z,24.31
2023-07-12T23:00:07.988Z,24.29
2023-07-12T23:02:28.720Z,24.58
2023-07-12T23:04:50.388Z,24.53
2023-07-12T23:07:11.415Z,24.70
2023-07-12T23:09:32.097Z,24.56
2023-07-12T23:11:52.818Z,24.61
2023-07-12T23:14:13.395Z,24.47
2023-07-12T23:16:34.338Z,24.37
2023-07-12T23:18:55.359Z,24.55
2023-07-12T23:21:18.344Z,24.60
2023-07-12T23:23:42.012Z,24.50
2023-07-12T23:26:03.906Z,24.59
2023-07-12T23:28:24.387Z,24.64
2023-07-12T23:30:45.403Z,24.53
2023-07-12T23:33:06.972Z,24.62
2023-07-12T23:35:27.962Z,24.50
2023-07-12T23:37:48.639Z,24.52
2023-07-12T23:40:10.421Z,24.34
2023-07-12T23:42:30.949Z,24.38
2023-07-12T23:44:51.739Z,24.43
2023-07-12T23:47:13.295Z,24.42
2023-07-12T23:49:34.394Z,24.45
2023-07-12T23:51:57.895Z,24.37
2023-07-12T23:54:19.976Z,24.43
2023-07-12T23:56:40.866Z,24.48
2023-07-12T23:59:02.724Z,24.57
